Autaugaville, Alabama
Current Conditions -  °F | °C
As of 10:15 AM on Saturday 25 Oct 2014 (Local Time) from K1A9 Reporting Station
Clear Clear  
Wind Chill: 67°   Ceiling: Unl
Heat Index: 67°   Visibility: 10mi
Dew Point: 51°   Wind: 9mph
Humidity: 55%   Direction: 330°NNW
Pressure: 30.11"   Gusts: NA
Location:  32.43°N, 86.65°W
Report Text: K1A9 251515Z AUTO 33008KT 10SM CLR 20/10 A3011 RMK AO2 T01970103
Loading
Personal Weather Stations






























Interactive Weather Map
Tropical Storm Tracking
New forecast layout! Learn more

10-Day Weather Forecast

Advertisements
Track Severe Weather on mobile